Terminal Aerodrome Forecast
Issued by NWS

Home | Current Version | Previous Version | Text Only | Print | Product List | Glossary On
Versions: 1 2 3 4 5 6 7 8 9 10 11 12 13 14 15 16 17 18 19 20 21 22 23 24 25 26 27 28 29 30 31 32 33 34 35 36 37 38 39 40 41
000
FTUS41 KALY 300500
TAFPSF
TAF
KPSF 300534Z 3006/3106 00000KT P6SM OVC070
     FM300800 00000KT 4SM BR SCT070
      TEMPO 3008/3011 2SM BR SKC
     FM301100 26003KT P6SM SCT050
     FM301800 26005KT P6SM BKN050
     FM310200 00000KT P6SM BKN050=

USA.gov is the U.S. government's official web portal to all federal, state and local government web resources and services.